Time;durP1;ratioP1;P1;durP2;ratioP2;P2;SDS_P1;SDS_P2;PMS_P1;PMS_P2;Temp;Humidity;BMP_temperature;BMP_pressure;BME280_temperature;BME280_humidity;BME280_pressure;Samples;Min_cycle;Max_cycle;Signal;HPM_P1;HPM_P2
2023/05/09 00:00:48;;;;;;;6.60;4.20;;;;;;;;;;5093556;28;20781;-57
2023/05/09 00:03:15;;;;;;;4.47;4.13;;;;;;;;;;5093428;28;20538;-57
2023/05/09 00:05:42;;;;;;;3.80;3.53;;;;;;;;;;5093396;28;20439;-57
2023/05/09 00:08:09;;;;;;;4.10;3.80;;;;;;;;;;5093472;28;20478;-56
2023/05/09 00:10:38;;;;;;;4.13;3.37;;;;;;;;;;5093464;28;20417;-58
2023/05/09 00:13:05;;;;;;;3.90;3.60;;;;;;;;;;5093436;28;21059;-57
2023/05/09 00:15:32;;;;;;;6.20;4.00;;;;;;;;;;5093409;28;20443;-57
2023/05/09 00:17:59;;;;;;;4.70;3.40;;;;;;;;;;5093090;28;20454;-57
2023/05/09 00:20:27;;;;;;;4.30;4.00;;;;;;;;;;5093384;28;20446;-58
2023/05/09 00:22:54;;;;;;;4.23;3.83;;;;;;;;;;5093375;28;20486;-56
2023/05/09 00:25:21;;;;;;;4.03;3.73;;;;;;;;;;5093297;28;20595;-58
2023/05/09 00:27:49;;;;;;;4.63;3.87;;;;;;;;;;5093212;28;20821;-58
2023/05/09 00:30:16;;;;;;;3.90;3.47;;;;;;;;;;5093306;28;20486;-58
2023/05/09 00:32:44;;;;;;;3.90;3.60;;;;;;;;;;5092928;28;20439;-58
2023/05/09 00:35:10;;;;;;;4.23;3.83;;;;;;;;;;5092995;28;21021;-56
2023/05/09 00:37:37;;;;;;;11.80;4.13;;;;;;;;;;5093050;28;20558;-57
2023/05/09 00:40:05;;;;;;;4.40;3.97;;;;;;;;;;5093101;28;20446;-57
2023/05/09 00:42:32;;;;;;;4.10;3.60;;;;;;;;;;5092677;28;20486;-56
2023/05/09 00:45:00;;;;;;;8.63;4.20;;;;;;;;;;5092795;28;20451;-51
2023/05/09 00:47:28;;;;;;;7.07;4.27;;;;;;;;;;5093028;28;20451;-54
2023/05/09 00:49:55;;;;;;;4.20;3.67;;;;;;;;;;5093077;28;20564;-53
2023/05/09 00:52:24;;;;;;;4.20;3.83;;;;;;;;;;5092953;28;20475;-53
2023/05/09 00:54:51;;;;;;;4.60;3.23;;;;;;;;;;5092929;28;20550;-55
2023/05/09 00:57:18;;;;;;;6.53;3.77;;;;;;;;;;5092758;28;20475;-57
2023/05/09 00:59:45;;;;;;;4.30;3.53;;;;;;;;;;5092664;28;20447;-57
2023/05/09 01:02:14;;;;;;;4.57;3.43;;;;;;;;;;5092962;28;20533;-58
2023/05/09 01:04:41;;;;;;;3.80;3.50;;;;;;;;;;5096718;28;20444;-57
2023/05/09 01:07:11;;;;;;;3.63;3.17;;;;;;;;;;5097003;28;20534;-57
2023/05/09 01:09:41;;;;;;;3.80;3.40;;;;;;;;;;5096862;28;20443;-56
2023/05/09 01:12:14;;;;;;;3.60;3.30;;;;;;;;;;5097461;28;20870;-57
2023/05/09 01:14:44;;;;;;;4.07;3.47;;;;;;;;;;5096949;28;20500;-57
2023/05/09 01:17:15;;;;;;;4.30;3.10;;;;;;;;;;5096724;28;20524;-58
2023/05/09 01:20:04;;;;;;;4.70;3.53;;;;;;;;;;5096899;28;20461;-58
2023/05/09 01:22:33;;;;;;;3.80;3.17;;;;;;;;;;5096600;28;20756;-57
2023/05/09 01:25:12;;;;;;;5.53;4.03;;;;;;;;;;5096671;28;20808;-57
2023/05/09 01:27:44;;;;;;;5.03;3.03;;;;;;;;;;5096630;28;20450;-58
2023/05/09 01:30:13;;;;;;;10.03;3.83;;;;;;;;;;5096562;28;20454;-57
2023/05/09 01:32:41;;;;;;;3.77;3.47;;;;;;;;;;5096334;28;20453;-56
2023/05/09 01:35:09;;;;;;;5.93;3.30;;;;;;;;;;5096244;28;20495;-57
2023/05/09 01:37:36;;;;;;;3.10;2.70;;;;;;;;;;5096075;28;20985;-57
2023/05/09 01:40:07;;;;;;;6.27;3.30;;;;;;;;;;5096353;28;20528;-58
2023/05/09 01:42:38;;;;;;;3.13;2.90;;;;;;;;;;5095949;28;20477;-58
2023/05/09 01:45:06;;;;;;;4.37;2.97;;;;;;;;;;5096577;28;20454;-57
2023/05/09 01:47:35;;;;;;;3.37;3.00;;;;;;;;;;5095972;28;20454;-57
2023/05/09 01:50:02;;;;;;;2.90;2.70;;;;;;;;;;5096322;28;20455;-57
2023/05/09 01:52:29;;;;;;;2.87;2.67;;;;;;;;;;5096166;28;20449;-56
2023/05/09 01:54:57;;;;;;;6.00;3.20;;;;;;;;;;5096050;28;20446;-57
2023/05/09 01:57:24;;;;;;;3.03;2.83;;;;;;;;;;5096011;28;20466;-56
2023/05/09 01:59:52;;;;;;;2.90;2.70;;;;;;;;;;5095937;28;20493;-58
2023/05/09 02:02:19;;;;;;;2.83;2.57;;;;;;;;;;5095922;28;20800;-56
2023/05/09 02:04:48;;;;;;;2.83;2.53;;;;;;;;;;5095943;28;20879;-52
2023/05/09 02:07:15;;;;;;;5.00;2.53;;;;;;;;;;5095688;28;20957;-53
2023/05/09 02:09:42;;;;;;;2.93;2.73;;;;;;;;;;5095761;28;20535;-54
2023/05/09 02:12:09;;;;;;;4.63;2.60;;;;;;;;;;5095730;28;20579;-54
2023/05/09 02:14:36;;;;;;;3.07;2.87;;;;;;;;;;5095201;28;20544;-57
2023/05/09 02:17:05;;;;;;;3.53;3.23;;;;;;;;;;5095872;28;20447;-56
2023/05/09 02:19:33;;;;;;;3.77;2.83;;;;;;;;;;5095804;28;20425;-54
2023/05/09 02:22:03;;;;;;;2.60;2.40;;;;;;;;;;5095689;28;20424;-57
2023/05/09 02:24:31;;;;;;;3.17;2.87;;;;;;;;;;5095674;28;20806;-56
2023/05/09 02:26:58;;;;;;;6.10;2.70;;;;;;;;;;5095385;28;20447;-55
2023/05/09 02:29:28;;;;;;;4.17;2.97;;;;;;;;;;5095623;28;20432;-58
2023/05/09 02:31:55;;;;;;;2.90;2.70;;;;;;;;;;5095717;28;20418;-56
2023/05/09 02:34:22;;;;;;;3.63;2.70;;;;;;;;;;5095958;28;20443;-52
2023/05/09 02:36:49;;;;;;;5.87;2.97;;;;;;;;;;5095373;28;20541;-52
2023/05/09 02:39:18;;;;;;;4.73;3.20;;;;;;;;;;5095328;28;20479;-53
2023/05/09 02:41:49;;;;;;;4.23;3.30;;;;;;;;;;5094979;28;20470;-54
2023/05/09 02:44:16;;;;;;;2.90;2.60;;;;;;;;;;5095288;28;20481;-53
2023/05/09 02:46:43;;;;;;;3.90;2.70;;;;;;;;;;5095439;28;20446;-54
2023/05/09 02:49:09;;;;;;;2.90;2.70;;;;;;;;;;5095149;28;20561;-55
2023/05/09 02:51:36;;;;;;;3.00;2.53;;;;;;;;;;5095020;28;20428;-54
2023/05/09 02:54:03;;;;;;;2.80;2.60;;;;;;;;;;5095193;28;20541;-54
2023/05/09 02:56:32;;;;;;;3.40;2.60;;;;;;;;;;5094854;28;20455;-52
2023/05/09 02:58:59;;;;;;;3.10;2.90;;;;;;;;;;5094795;28;20483;-57
2023/05/09 03:01:26;;;;;;;3.17;2.80;;;;;;;;;;5094874;28;20455;-53
2023/05/09 03:03:52;;;;;;;4.40;2.60;;;;;;;;;;5094826;28;20802;-54
2023/05/09 03:06:19;;;;;;;3.20;2.90;;;;;;;;;;5094776;28;20451;-52
2023/05/09 03:08:46;;;;;;;4.00;2.90;;;;;;;;;;5094593;28;20439;-55
2023/05/09 03:11:13;;;;;;;2.93;2.73;;;;;;;;;;5094798;28;20457;-54
2023/05/09 03:13:41;;;;;;;3.00;2.60;;;;;;;;;;5094710;28;20999;-57
2023/05/09 03:16:08;;;;;;;3.07;2.60;;;;;;;;;;5094567;28;20424;-57
2023/05/09 03:18:35;;;;;;;3.90;3.50;;;;;;;;;;5094432;28;20493;-56
2023/05/09 03:21:02;;;;;;;2.43;2.30;;;;;;;;;;5094426;28;20443;-57
2023/05/09 03:23:29;;;;;;;4.67;2.63;;;;;;;;;;5094289;28;20454;-56
2023/05/09 03:25:56;;;;;;;5.30;2.77;;;;;;;;;;5093616;28;20516;-54
2023/05/09 03:28:23;;;;;;;7.80;2.90;;;;;;;;;;5094355;28;20500;-54
2023/05/09 03:30:51;;;;;;;3.97;3.07;;;;;;;;;;5094302;28;20810;-53
2023/05/09 03:33:18;;;;;;;5.10;2.93;;;;;;;;;;5094092;28;20417;-53
2023/05/09 03:35:45;;;;;;;3.70;3.40;;;;;;;;;;5094305;28;20447;-53
2023/05/09 03:38:12;;;;;;;3.20;3.00;;;;;;;;;;5094241;28;20441;-55
2023/05/09 03:40:49;;;;;;;3.03;2.83;;;;;;;;;;5093973;28;20473;-55
2023/05/09 03:43:16;;;;;;;9.27;3.20;;;;;;;;;;5094328;28;20436;-54
2023/05/09 03:45:43;;;;;;;4.53;3.50;;;;;;;;;;5093927;28;20436;-58
2023/05/09 03:48:11;;;;;;;3.30;3.00;;;;;;;;;;5093902;28;20457;-51
2023/05/09 03:50:38;;;;;;;4.70;4.07;;;;;;;;;;5093788;28;20814;-52
2023/05/09 03:53:05;;;;;;;3.73;3.37;;;;;;;;;;5093953;28;20629;-50
2023/05/09 03:55:32;;;;;;;3.70;3.07;;;;;;;;;;5093877;28;20483;-52
2023/05/09 03:57:59;;;;;;;4.13;3.27;;;;;;;;;;5093661;28;20558;-53
2023/05/09 04:00:26;;;;;;;5.97;4.30;;;;;;;;;;5093718;28;20457;-54
2023/05/09 04:02:53;;;;;;;5.70;4.17;;;;;;;;;;5093635;28;20949;-51
2023/05/09 04:05:21;;;;;;;4.00;3.70;;;;;;;;;;5093793;28;20534;-51
2023/05/09 04:07:48;;;;;;;6.90;3.83;;;;;;;;;;5093618;28;20447;-52
2023/05/09 04:10:15;;;;;;;3.57;3.37;;;;;;;;;;5093750;28;20526;-51
2023/05/09 04:12:42;;;;;;;6.57;3.83;;;;;;;;;;5093537;28;20946;-57
2023/05/09 04:15:10;;;;;;;5.27;4.07;;;;;;;;;;5093744;28;20451;-57
2023/05/09 04:17:37;;;;;;;3.60;3.17;;;;;;;;;;5093282;28;20500;-55
2023/05/09 04:20:04;;;;;;;3.57;3.27;;;;;;;;;;5093417;28;20823;-55
2023/05/09 04:22:32;;;;;;;4.37;3.97;;;;;;;;;;5093397;28;20447;-56
2023/05/09 04:24:59;;;;;;;3.77;3.37;;;;;;;;;;5093396;28;20673;-57
2023/05/09 04:27:26;;;;;;;4.07;3.67;;;;;;;;;;5093214;28;20442;-52
2023/05/09 04:29:54;;;;;;;3.60;3.30;;;;;;;;;;5093080;28;20973;-53
2023/05/09 04:32:22;;;;;;;4.60;4.00;;;;;;;;;;5093336;28;20442;-51
2023/05/09 04:34:49;;;;;;;9.63;3.70;;;;;;;;;;5093247;28;20806;-54
2023/05/09 04:37:16;;;;;;;4.20;3.80;;;;;;;;;;5093348;28;20453;-50
2023/05/09 04:39:44;;;;;;;3.73;3.43;;;;;;;;;;5093082;28;20483;-51
2023/05/09 04:42:11;;;;;;;4.20;3.80;;;;;;;;;;5092977;28;21056;-51
2023/05/09 04:44:38;;;;;;;4.50;3.00;;;;;;;;;;5092911;28;20849;-52
2023/05/09 04:47:05;;;;;;;4.30;3.33;;;;;;;;;;5093200;28;20534;-54
2023/05/09 04:49:32;;;;;;;7.27;3.60;;;;;;;;;;5093138;28;20883;-52
2023/05/09 04:51:59;;;;;;;4.00;3.47;;;;;;;;;;5093111;28;20444;-51
2023/05/09 04:54:26;;;;;;;5.83;2.93;;;;;;;;;;5093005;28;20517;-54
2023/05/09 04:56:54;;;;;;;3.60;2.80;;;;;;;;;;5092841;28;20500;-51
2023/05/09 04:59:21;;;;;;;2.93;2.73;;;;;;;;;;5092672;28;20478;-52
2023/05/09 05:01:48;;;;;;;3.73;3.40;;;;;;;;;;5093171;28;20534;-51
2023/05/09 05:04:15;;;;;;;4.10;3.70;;;;;;;;;;5093100;28;20443;-55
2023/05/09 05:06:42;;;;;;;3.83;3.20;;;;;;;;;;5092912;28;20447;-52
2023/05/09 05:09:09;;;;;;;5.90;4.20;;;;;;;;;;5093015;28;20546;-57
2023/05/09 05:11:36;;;;;;;3.00;2.80;;;;;;;;;;5092601;28;20454;-57
2023/05/09 05:14:04;;;;;;;3.63;3.43;;;;;;;;;;5092789;28;20453;-56
2023/05/09 05:16:31;;;;;;;5.93;3.27;;;;;;;;;;5092826;28;20491;-57
2023/05/09 05:18:58;;;;;;;4.07;2.77;;;;;;;;;;5092634;28;20550;-55
2023/05/09 05:21:25;;;;;;;3.90;3.30;;;;;;;;;;5092940;28;20453;-56
2023/05/09 05:23:52;;;;;;;6.80;3.43;;;;;;;;;;5092675;28;20457;-57
2023/05/09 05:26:19;;;;;;;3.40;3.10;;;;;;;;;;5092463;28;20805;-58
2023/05/09 05:28:46;;;;;;;13.33;7.73;;;;;;;;;;5092876;28;20451;-53
2023/05/09 05:31:15;;;;;;;3.70;3.07;;;;;;;;;;5092711;28;20512;-53
2023/05/09 05:33:42;;;;;;;3.30;3.00;;;;;;;;;;5092624;28;20810;-54
2023/05/09 05:36:09;;;;;;;3.60;3.20;;;;;;;;;;5092373;28;20534;-57
2023/05/09 05:38:36;;;;;;;3.80;3.33;;;;;;;;;;5092349;28;20912;-57
2023/05/09 05:41:03;;;;;;;3.60;3.30;;;;;;;;;;5092139;28;20574;-58
2023/05/09 05:43:30;;;;;;;4.63;3.50;;;;;;;;;;5092455;28;20546;-56
2023/05/09 05:45:57;;;;;;;6.13;3.80;;;;;;;;;;5092321;28;20504;-53
2023/05/09 05:48:25;;;;;;;6.40;3.40;;;;;;;;;;5092365;28;20814;-57
2023/05/09 05:50:52;;;;;;;3.00;2.80;;;;;;;;;;5095928;28;20453;-54
2023/05/09 05:53:19;;;;;;;3.20;2.90;;;;;;;;;;5095775;28;20449;-57
2023/05/09 05:55:46;;;;;;;3.30;3.10;;;;;;;;;;5096048;28;20455;-55
2023/05/09 05:58:13;;;;;;;5.80;4.03;;;;;;;;;;5095578;28;20921;-54
2023/05/09 06:00:40;;;;;;;4.33;3.00;;;;;;;;;;5095882;28;20449;-53
2023/05/09 06:03:07;;;;;;;3.60;3.40;;;;;;;;;;5095779;28;20537;-56
2023/05/09 06:05:35;;;;;;;4.50;2.90;;;;;;;;;;5095652;28;20446;-55
2023/05/09 06:08:02;;;;;;;5.57;3.27;;;;;;;;;;5095544;28;20456;-56
2023/05/09 06:10:29;;;;;;;3.80;3.23;;;;;;;;;;5095714;28;20880;-57
2023/05/09 06:12:56;;;;;;;4.23;3.73;;;;;;;;;;5095341;28;21016;-57
2023/05/09 06:15:23;;;;;;;3.17;2.97;;;;;;;;;;5095610;28;20447;-57
2023/05/09 06:17:50;;;;;;;4.90;3.57;;;;;;;;;;5095595;28;20941;-57
2023/05/09 06:20:17;;;;;;;3.70;3.23;;;;;;;;;;5095570;28;20489;-58
2023/05/09 06:22:45;;;;;;;3.63;3.07;;;;;;;;;;5095419;28;20453;-57
2023/05/09 06:25:12;;;;;;;5.93;3.60;;;;;;;;;;5095487;28;20561;-57
2023/05/09 06:27:39;;;;;;;4.43;3.20;;;;;;;;;;5095619;28;20458;-57
2023/05/09 06:30:07;;;;;;;4.23;3.50;;;;;;;;;;5095439;28;20497;-57
2023/05/09 06:32:34;;;;;;;3.93;3.53;;;;;;;;;;5095211;28;20473;-57
2023/05/09 06:35:01;;;;;;;5.27;4.07;;;;;;;;;;5095103;28;20540;-55
2023/05/09 06:37:28;;;;;;;4.33;3.23;;;;;;;;;;5095254;28;20458;-54
2023/05/09 06:39:56;;;;;;;3.60;3.30;;;;;;;;;;5094998;28;21035;-56
2023/05/09 06:42:23;;;;;;;4.10;2.60;;;;;;;;;;5094960;28;20479;-54
2023/05/09 06:44:50;;;;;;;3.20;3.00;;;;;;;;;;5095132;28;20469;-56
2023/05/09 06:47:17;;;;;;;3.97;3.40;;;;;;;;;;5095174;28;20449;-53
2023/05/09 06:49:44;;;;;;;3.83;3.37;;;;;;;;;;5094946;28;20500;-54
2023/05/09 06:52:11;;;;;;;3.60;3.30;;;;;;;;;;5094865;28;20449;-52
2023/05/09 06:54:38;;;;;;;3.97;3.40;;;;;;;;;;5094808;28;20446;-51
2023/05/09 06:57:07;;;;;;;3.63;3.33;;;;;;;;;;5094726;28;20447;-55
2023/05/09 06:59:34;;;;;;;3.13;2.90;;;;;;;;;;5094267;28;20489;-57
2023/05/09 07:02:01;;;;;;;3.43;3.13;;;;;;;;;;5093412;28;20530;-57
2023/05/09 07:04:27;;;;;;;3.33;2.90;;;;;;;;;;5094533;28;20877;-57
2023/05/09 07:06:54;;;;;;;5.30;3.70;;;;;;;;;;5094639;28;20495;-57
2023/05/09 07:09:26;;;;;;;5.17;3.40;;;;;;;;;;5094535;28;20478;-56
2023/05/09 07:11:53;;;;;;;3.60;3.23;;;;;;;;;;5094424;28;20504;-57
2023/05/09 07:14:21;;;;;;;4.80;3.23;;;;;;;;;;5094272;28;20446;-57
2023/05/09 07:16:48;;;;;;;3.17;2.87;;;;;;;;;;5094190;28;21015;-58
2023/05/09 07:19:15;;;;;;;4.17;2.60;;;;;;;;;;5094238;28;20471;-60
2023/05/09 07:21:42;;;;;;;19.07;10.70;;;;;;;;;;5094360;28;20447;-57
2023/05/09 07:24:09;;;;;;;3.50;3.20;;;;;;;;;;5094182;28;20712;-56
2023/05/09 07:26:36;;;;;;;15.53;3.43;;;;;;;;;;5094273;28;20508;-57
2023/05/09 07:29:03;;;;;;;3.20;3.00;;;;;;;;;;5094333;28;20455;-57
2023/05/09 07:31:31;;;;;;;3.53;3.23;;;;;;;;;;5094406;28;20479;-56
2023/05/09 07:33:59;;;;;;;4.90;3.10;;;;;;;;;;5094300;28;20459;-57
2023/05/09 07:36:26;;;;;;;4.60;3.37;;;;;;;;;;5094121;28;20447;-57
2023/05/09 07:38:53;;;;;;;4.27;2.80;;;;;;;;;;5085058;28;20498;-57
2023/05/09 07:41:21;;;;;;;14.13;5.50;;;;;;;;;;5088339;28;20494;-57
2023/05/09 07:43:48;;;;;;;3.30;2.60;;;;;;;;;;5093740;28;20447;-54
2023/05/09 07:46:15;;;;;;;6.50;3.17;;;;;;;;;;5093897;28;20454;-54
2023/05/09 07:48:43;;;;;;;4.63;3.40;;;;;;;;;;5093762;28;20846;-54
2023/05/09 07:51:10;;;;;;;3.27;3.03;;;;;;;;;;5093876;28;20809;-59
2023/05/09 07:53:37;;;;;;;3.67;2.93;;;;;;;;;;5093509;28;20537;-54
2023/05/09 07:56:05;;;;;;;3.30;3.10;;;;;;;;;;5093611;28;20452;-55
2023/05/09 07:58:32;;;;;;;3.17;2.87;;;;;;;;;;5093649;28;20455;-56
2023/05/09 08:00:59;;;;;;;2.90;2.70;;;;;;;;;;5093526;28;20487;-56
2023/05/09 08:03:26;;;;;;;4.73;3.00;;;;;;;;;;5093469;28;20577;-56
2023/05/09 08:05:55;;;;;;;3.40;2.90;;;;;;;;;;5093395;28;20545;-56
2023/05/09 08:08:22;;;;;;;4.70;2.60;;;;;;;;;;5093456;28;20448;-55
2023/05/09 08:10:49;;;;;;;3.93;2.80;;;;;;;;;;5093209;28;20443;-56
2023/05/09 08:13:17;;;;;;;2.90;2.70;;;;;;;;;;5093111;28;20541;-55
2023/05/09 08:15:44;;;;;;;3.13;2.93;;;;;;;;;;5093272;28;20451;-53
2023/05/09 08:18:11;;;;;;;4.60;3.40;;;;;;;;;;5093192;28;20454;-56
2023/05/09 08:20:38;;;;;;;3.67;2.57;;;;;;;;;;5092983;28;20993;-55
2023/05/09 08:23:07;;;;;;;8.13;2.93;;;;;;;;;;5093071;28;20448;-56
2023/05/09 08:25:34;;;;;;;2.37;2.27;;;;;;;;;;5093004;28;20543;-57
2023/05/09 08:28:01;;;;;;;3.88;3.00;;;;;;;;;;5092395;28;20505;-56
2023/05/09 08:30:28;;;;;;;3.43;3.07;;;;;;;;;;5093182;28;20217;-57
2023/05/09 08:32:55;;;;;;;4.30;3.10;;;;;;;;;;5093182;28;20442;-58
2023/05/09 08:35:22;;;;;;;2.83;2.60;;;;;;;;;;5093018;28;20469;-56
2023/05/09 08:37:49;;;;;;;2.90;2.70;;;;;;;;;;5092856;28;20454;-57
2023/05/09 08:40:18;;;;;;;3.30;3.10;;;;;;;;;;5086832;28;20473;-57
2023/05/09 08:42:45;;;;;;;2.90;2.70;;;;;;;;;;5087662;28;20444;-57
2023/05/09 08:45:14;;;;;;;3.23;2.93;;;;;;;;;;5093122;28;20521;-57
2023/05/09 08:47:41;;;;;;;4.10;3.70;;;;;;;;;;5093007;28;20481;-56
2023/05/09 08:50:10;;;;;;;5.10;3.20;;;;;;;;;;5092921;28;20522;-55
2023/05/09 08:52:37;;;;;;;3.20;3.00;;;;;;;;;;5082797;28;20440;-56
2023/05/09 08:55:05;;;;;;;5.83;3.00;;;;;;;;;;5081644;28;20475;-57
2023/05/09 08:57:34;;;;;;;3.40;2.80;;;;;;;;;;5080593;28;20444;-58
2023/05/09 09:00:05;;;;;;;4.60;2.80;;;;;;;;;;5084858;28;20477;-56
2023/05/09 09:02:33;;;;;;;2.60;2.37;;;;;;;;;;5084251;28;20534;-56
2023/05/09 09:05:01;;;;;;;6.40;3.40;;;;;;;;;;5076628;28;20542;-58
2023/05/09 09:07:29;;;;;;;2.60;2.40;;;;;;;;;;5089198;28;20527;-59
2023/05/09 09:09:56;;;;;;;2.80;2.57;;;;;;;;;;5079274;28;20451;-58
2023/05/09 09:12:23;;;;;;;5.53;2.97;;;;;;;;;;5081912;28;20532;-58
2023/05/09 09:14:53;;;;;;;5.00;2.63;;;;;;;;;;5087160;28;20873;-55
2023/05/09 09:17:21;;;;;;;2.20;2.00;;;;;;;;;;5075827;28;20944;-58
2023/05/09 09:19:49;;;;;;;2.43;2.23;;;;;;;;;;5086539;28;20467;-58
2023/05/09 09:22:17;;;;;;;8.33;3.00;;;;;;;;;;5081978;28;20601;-59
2023/05/09 09:24:44;;;;;;;6.97;2.60;;;;;;;;;;5081047;28;20506;-59
2023/05/09 09:27:11;;;;;;;5.63;2.70;;;;;;;;;;5084984;28;20440;-59
2023/05/09 09:29:38;;;;;;;2.40;2.20;;;;;;;;;;5086102;28;20452;-59
2023/05/09 09:32:07;;;;;;;3.50;2.60;;;;;;;;;;5087023;28;20450;-59
2023/05/09 09:34:34;;;;;;;3.50;1.90;;;;;;;;;;5082181;28;20445;-58
2023/05/09 09:37:01;;;;;;;2.80;2.60;;;;;;;;;;5086130;28;20445;-56
2023/05/09 09:39:28;;;;;;;3.07;2.77;;;;;;;;;;5086882;28;20440;-58
2023/05/09 09:41:55;;;;;;;2.80;2.17;;;;;;;;;;5081887;28;20474;-58
2023/05/09 09:44:22;;;;;;;2.60;2.40;;;;;;;;;;5092475;28;20531;-56
2023/05/09 09:46:50;;;;;;;4.07;2.87;;;;;;;;;;5076416;28;20453;-59
2023/05/09 09:49:19;;;;;;;2.57;2.37;;;;;;;;;;5086757;28;20452;-58
2023/05/09 09:51:50;;;;;;;3.83;2.20;;;;;;;;;;5086699;28;21118;-58
2023/05/09 09:54:17;;;;;;;2.40;2.30;;;;;;;;;;5083273;28;20847;-59
2023/05/09 09:56:44;;;;;;;2.90;2.40;;;;;;;;;;5086292;28;20971;-59
2023/05/09 09:59:12;;;;;;;3.90;2.40;;;;;;;;;;5080887;28;20944;-59
2023/05/09 10:01:54;;;;;;;6.70;5.30;;;;;;;;;;5092186;28;20481;-60
2023/05/09 10:04:22;;;;;;;3.70;3.40;;;;;;;;;;5081074;28;21027;-59
2023/05/09 10:06:53;;;;;;;4.90;2.60;;;;;;;;;;5083991;28;20451;-59
2023/05/09 10:09:21;;;;;;;5.40;2.93;;;;;;;;;;5091281;28;20448;-59
2023/05/09 10:11:49;;;;;;;3.60;2.50;;;;;;;;;;5078583;28;20480;-59
2023/05/09 10:14:17;;;;;;;4.50;2.70;;;;;;;;;;5088350;28;20533;-59
2023/05/09 10:16:44;;;;;;;4.50;2.37;;;;;;;;;;5086179;28;20528;-58
2023/05/09 10:19:12;;;;;;;4.10;3.40;;;;;;;;;;5081095;28;20527;-59
2023/05/09 10:21:41;;;;;;;5.90;3.20;;;;;;;;;;5091704;28;20559;-59
2023/05/09 10:24:09;;;;;;;4.93;3.60;;;;;;;;;;5080690;28;20445;-59
2023/05/09 10:26:38;;;;;;;6.13;2.97;;;;;;;;;;5085280;28;20875;-60
2023/05/09 10:29:08;;;;;;;2.70;2.50;;;;;;;;;;5082085;28;20857;-59
2023/05/09 10:31:36;;;;;;;4.20;3.03;;;;;;;;;;5091661;28;21031;-59
2023/05/09 10:34:06;;;;;;;2.50;2.20;;;;;;;;;;5082805;28;20530;-59
2023/05/09 10:36:33;;;;;;;2.63;2.20;;;;;;;;;;5074596;28;20482;-60
2023/05/09 10:39:01;;;;;;;2.70;2.50;;;;;;;;;;5074848;28;21017;-59
2023/05/09 10:41:29;;;;;;;3.10;2.37;;;;;;;;;;5074702;28;20551;-59
2023/05/09 10:43:56;;;;;;;8.10;3.00;;;;;;;;;;5074964;28;20450;-58
2023/05/09 10:46:23;;;;;;;2.70;2.50;;;;;;;;;;5074790;28;20450;-59
2023/05/09 10:48:51;;;;;;;2.40;1.93;;;;;;;;;;5075023;28;20875;-59
2023/05/09 10:51:18;;;;;;;2.90;2.70;;;;;;;;;;5074608;28;20450;-60
2023/05/09 10:53:46;;;;;;;3.00;2.47;;;;;;;;;;5074826;28;20541;-59
2023/05/09 10:56:25;;;;;;;3.60;2.40;;;;;;;;;;5074716;28;20482;-58
2023/05/09 10:58:53;;;;;;;8.10;2.83;;;;;;;;;;5083273;28;20531;-58
2023/05/09 11:01:30;;;;;;;4.03;2.20;;;;;;;;;;5094467;28;21055;-58
2023/05/09 11:03:57;;;;;;;2.43;2.30;;;;;;;;;;5094520;28;20544;-58
2023/05/09 11:06:41;;;;;;;3.33;2.50;;;;;;;;;;5094780;28;20547;-58
2023/05/09 11:09:23;;;;;;;4.10;2.43;;;;;;;;;;5094666;28;20467;-57
2023/05/09 11:11:53;;;;;;;3.50;2.27;;;;;;;;;;5090728;28;20445;-58
2023/05/09 11:14:29;;;;;;;2.30;2.20;;;;;;;;;;5084343;28;20982;-58
2023/05/09 11:16:58;;;;;;;2.37;2.17;;;;;;;;;;5083927;28;20465;-58
2023/05/09 11:19:35;;;;;;;2.73;2.43;;;;;;;;;;5082008;28;20446;-58
2023/05/09 11:22:02;;;;;;;3.50;2.40;;;;;;;;;;5084648;28;20809;-58
2023/05/09 11:24:32;;;;;;;2.70;2.50;;;;;;;;;;5083381;28;20460;-58
2023/05/09 11:27:01;;;;;;;1.80;1.70;;;;;;;;;;5085015;28;20504;-58
2023/05/09 11:29:28;;;;;;;2.70;2.47;;;;;;;;;;5081897;28;20515;-58
2023/05/09 11:32:07;;;;;;;2.90;2.10;;;;;;;;;;5083771;28;20544;-59
2023/05/09 11:34:34;;;;;;;3.47;2.23;;;;;;;;;;5083693;28;20976;-58
2023/05/09 11:37:09;;;;;;;6.67;2.70;;;;;;;;;;5082316;28;20442;-58
2023/05/09 11:39:36;;;;;;;7.93;2.53;;;;;;;;;;5083950;28;20441;-60
2023/05/09 11:42:05;;;;;;;2.47;2.27;;;;;;;;;;5080208;28;20578;-59
2023/05/09 11:44:35;;;;;;;2.60;2.40;;;;;;;;;;5073704;28;20454;-59
2023/05/09 11:47:02;;;;;;;2.80;1.90;;;;;;;;;;5072836;28;20549;-55
2023/05/09 11:49:30;;;;;;;3.90;2.80;;;;;;;;;;5073345;28;20545;-58
2023/05/09 11:51:59;;;;;;;2.10;2.00;;;;;;;;;;5083028;28;20458;-58
2023/05/09 11:54:26;;;;;;;4.50;2.60;;;;;;;;;;5093821;28;20555;-58
2023/05/09 11:56:53;;;;;;;5.60;2.27;;;;;;;;;;5093817;28;20450;-58
2023/05/09 11:59:23;;;;;;;2.87;2.57;;;;;;;;;;5093587;28;20450;-58
2023/05/09 12:01:50;;;;;;;4.60;2.40;;;;;;;;;;5093332;28;20908;-58
2023/05/09 12:04:17;;;;;;;2.57;2.37;;;;;;;;;;5093163;28;20828;-58
2023/05/09 12:06:47;;;;;;;2.77;2.53;;;;;;;;;;5093490;28;20446;-57
2023/05/09 12:09:15;;;;;;;2.20;2.10;;;;;;;;;;5093435;28;20454;-57
2023/05/09 12:11:47;;;;;;;6.70;2.13;;;;;;;;;;5093429;28;20450;-57
2023/05/09 12:14:27;;;;;;;4.07;2.40;;;;;;;;;;5093361;28;20882;-58
2023/05/09 12:16:54;;;;;;;5.90;2.00;;;;;;;;;;5093178;28;20452;-58
2023/05/09 12:19:21;;;;;;;4.63;3.00;;;;;;;;;;5093390;28;20452;-58
2023/05/09 12:21:48;;;;;;;6.97;2.90;;;;;;;;;;5093032;28;20485;-58
2023/05/09 12:24:20;;;;;;;3.40;2.30;;;;;;;;;;5093101;28;20542;-58
2023/05/09 12:26:48;;;;;;;6.43;2.30;;;;;;;;;;5093033;28;20455;-58
2023/05/09 12:29:15;;;;;;;4.47;2.37;;;;;;;;;;5092855;28;20959;-57
2023/05/09 12:31:43;;;;;;;2.27;2.07;;;;;;;;;;5093119;28;20533;-58
2023/05/09 12:34:10;;;;;;;4.13;2.20;;;;;;;;;;5093233;28;21014;-58
2023/05/09 12:36:37;;;;;;;5.67;2.20;;;;;;;;;;5087106;28;20507;-58
2023/05/09 12:39:08;;;;;;;2.30;2.10;;;;;;;;;;5081323;28;20452;-58
2023/05/09 12:41:35;;;;;;;3.93;2.60;;;;;;;;;;5081424;28;20468;-58
2023/05/09 12:44:02;;;;;;;3.37;2.33;;;;;;;;;;5081844;28;20460;-58
2023/05/09 12:46:29;;;;;;;4.03;3.57;;;;;;;;;;5083418;28;20465;-58
2023/05/09 12:48:57;;;;;;;4.70;2.73;;;;;;;;;;5081876;28;20539;-58
2023/05/09 12:51:24;;;;;;;4.27;2.50;;;;;;;;;;5081645;28;20484;-58
2023/05/09 12:53:52;;;;;;;3.57;2.27;;;;;;;;;;5082981;28;20442;-58
2023/05/09 12:56:21;;;;;;;4.70;3.50;;;;;;;;;;5077681;28;20780;-58
2023/05/09 12:58:49;;;;;;;2.80;1.80;;;;;;;;;;5075059;28;20815;-56
2023/05/09 13:01:17;;;;;;;5.43;2.47;;;;;;;;;;5076583;28;20485;-58
2023/05/09 13:03:44;;;;;;;2.80;2.23;;;;;;;;;;5076571;28;21117;-58
2023/05/09 13:06:14;;;;;;;3.80;2.30;;;;;;;;;;5076547;28;20534;-58
2023/05/09 13:08:41;;;;;;;4.33;2.23;;;;;;;;;;5076324;28;20929;-58
2023/05/09 13:11:11;;;;;;;2.67;2.33;;;;;;;;;;5076641;28;20481;-58
2023/05/09 13:13:38;;;;;;;4.37;2.60;;;;;;;;;;5076519;28;20451;-58
2023/05/09 13:16:05;;;;;;;2.70;2.50;;;;;;;;;;5076496;28;20447;-58
2023/05/09 13:18:32;;;;;;;3.67;2.27;;;;;;;;;;5076435;28;20802;-57
2023/05/09 13:20:59;;;;;;;3.03;2.57;;;;;;;;;;5076199;28;21008;-56
2023/05/09 13:23:27;;;;;;;3.73;2.50;;;;;;;;;;5076252;28;20802;-58
2023/05/09 13:25:54;;;;;;;1.90;1.80;;;;;;;;;;5076357;28;20451;-57
2023/05/09 13:28:21;;;;;;;2.20;2.00;;;;;;;;;;5076183;28;20946;-58
2023/05/09 13:30:48;;;;;;;3.47;2.23;;;;;;;;;;5075822;28;20540;-58
2023/05/09 13:33:15;;;;;;;2.93;2.73;;;;;;;;;;5076043;28;20454;-57
2023/05/09 13:35:42;;;;;;;3.40;2.33;;;;;;;;;;5075981;28;20538;-58
2023/05/09 13:38:09;;;;;;;10.93;2.60;;;;;;;;;;5075930;28;20502;-58
2023/05/09 13:40:37;;;;;;;6.70;2.10;;;;;;;;;;5075898;28;20485;-58
2023/05/09 13:43:04;;;;;;;2.63;2.30;;;;;;;;;;5075924;28;20479;-58
2023/05/09 13:45:31;;;;;;;4.00;1.83;;;;;;;;;;5075752;28;20972;-58
2023/05/09 13:47:58;;;;;;;5.27;2.07;;;;;;;;;;5075891;28;20829;-59
2023/05/09 13:50:25;;;;;;;5.50;2.67;;;;;;;;;;5075590;28;20455;-58
2023/05/09 13:52:53;;;;;;;3.87;2.10;;;;;;;;;;5075795;28;20469;-59
2023/05/09 13:55:20;;;;;;;2.60;2.03;;;;;;;;;;5075627;28;20459;-58
2023/05/09 13:57:48;;;;;;;3.80;2.00;;;;;;;;;;5075659;28;20543;-58
2023/05/09 14:00:16;;;;;;;4.20;2.30;;;;;;;;;;5075524;28;20455;-58
2023/05/09 14:02:43;;;;;;;3.30;2.00;;;;;;;;;;5075376;28;20486;-58
2023/05/09 14:05:10;;;;;;;9.50;2.97;;;;;;;;;;5075344;28;20524;-58
2023/05/09 14:07:37;;;;;;;3.30;2.40;;;;;;;;;;5075322;28;21007;-58
2023/05/09 14:10:05;;;;;;;3.17;2.87;;;;;;;;;;5074828;28;20454;-57
2023/05/09 14:12:32;;;;;;;3.20;1.97;;;;;;;;;;5075348;28;20542;-58
2023/05/09 14:15:01;;;;;;;2.53;2.33;;;;;;;;;;5075369;28;20566;-58
2023/05/09 14:17:27;;;;;;;7.47;2.50;;;;;;;;;;5075295;28;20460;-58
2023/05/09 14:19:54;;;;;;;4.27;2.60;;;;;;;;;;5075315;28;20621;-58
2023/05/09 14:22:21;;;;;;;4.30;2.67;;;;;;;;;;5075133;28;20521;-57
2023/05/09 14:24:49;;;;;;;3.97;2.47;;;;;;;;;;5075313;28;20946;-57
2023/05/09 14:27:16;;;;;;;2.83;2.17;;;;;;;;;;5074991;28;20504;-57
2023/05/09 14:29:43;;;;;;;2.13;1.87;;;;;;;;;;5075237;28;20455;-58
2023/05/09 14:32:11;;;;;;;5.40;2.63;;;;;;;;;;5074935;28;20482;-59
2023/05/09 14:34:38;;;;;;;3.03;2.10;;;;;;;;;;5075091;28;20451;-59
2023/05/09 14:37:12;;;;;;;3.70;2.07;;;;;;;;;;5075235;28;20510;-58
2023/05/09 14:39:39;;;;;;;3.00;2.20;;;;;;;;;;5075312;28;20446;-57
2023/05/09 14:42:08;;;;;;;2.07;1.97;;;;;;;;;;5074819;28;20516;-57
2023/05/09 14:44:35;;;;;;;2.60;1.73;;;;;;;;;;5074655;28;20531;-58
2023/05/09 14:47:02;;;;;;;6.47;2.77;;;;;;;;;;5074814;28;20447;-59